Time;durP1;ratioP1;P1;durP2;ratioP2;P2;SDS_P1;SDS_P2;PMS_P1;PMS_P2;Temp;Humidity;BMP_temperature;BMP_pressure;BME280_temperature;BME280_humidity;BME280_pressure;Samples;Min_cycle;Max_cycle;Signal;HPM_P1;HPM_P2
2023/04/14 00:00:19;;;;;;;;;;;;;;;20.76;49.06;100334.25;4960951;28;2687;-73
2023/04/14 00:02:46;;;;;;;;;;;;;;;20.75;49.33;100339.25;4965777;28;2406;-73
2023/04/14 00:05:13;;;;;;;;;;;;;;;20.74;49.26;100349.28;4961969;28;2896;-73
2023/04/14 00:07:48;;;;;;;;;;;;;;;20.74;49.20;100349.28;4960753;28;2720;-73
2023/04/14 00:10:15;;;;;;;;;;;;;;;20.74;49.15;100355.06;4958562;28;2705;-72
2023/04/14 00:12:41;;;;;;;;;;;;;;;20.73;49.07;100350.72;4960787;28;3151;-73
2023/04/14 00:15:08;;;;;;;;;;;;;;;20.73;49.32;100353.59;4966560;28;2754;-73
2023/04/14 00:17:34;;;;;;;;;;;;;;;20.73;49.38;100359.34;4960143;28;2631;-73
2023/04/14 00:20:00;;;;;;;;;;;;;;;20.71;49.14;100367.91;4957432;28;2567;-72
2023/04/14 00:22:27;;;;;;;;;;;;;;;20.74;49.30;100368.72;4961584;28;2878;-71
2023/04/14 00:24:54;;;;;;;;;;;;;;;20.78;49.18;100360.22;4946353;28;2709;-71
2023/04/14 00:27:20;;;;;;;;;;;;;;;20.77;49.37;100373.13;4957388;28;2643;-72
2023/04/14 00:29:47;;;;;;;;;;;;;;;20.76;49.61;100369.53;4957711;28;2367;-73
2023/04/14 00:32:13;;;;;;;;;;;;;;;20.76;49.74;100381.03;4960223;28;2797;-73
2023/04/14 00:34:39;;;;;;;;;;;;;;;20.74;49.71;100378.06;4963630;28;2776;-73
2023/04/14 00:37:06;;;;;;;;;;;;;;;20.72;49.61;100372.25;4939942;28;2677;-73
2023/04/14 00:39:32;;;;;;;;;;;;;;;20.70;49.91;100377.91;4960277;28;2687;-72
2023/04/14 00:42:02;;;;;;;;;;;;;;;20.70;49.97;100383.66;4941632;28;2965;-73
2023/04/14 00:44:29;;;;;;;;;;;;;;;20.68;49.84;100377.84;4942566;28;2636;-72
2023/04/14 00:46:56;;;;;;;;;;;;;;;20.68;49.93;100380.72;4944826;28;2766;-73
2023/04/14 00:49:22;;;;;;;;;;;;;;;20.68;49.99;100375.72;4955624;28;2918;-73
2023/04/14 00:51:49;;;;;;;;;;;;;;;20.67;49.92;100382.84;4941215;28;2705;-73
2023/04/14 00:54:17;;;;;;;;;;;;;;;20.67;49.80;100379.25;4953036;28;2685;-73
2023/04/14 00:56:43;;;;;;;;;;;;;;;20.67;49.79;100382.13;4959702;28;2805;-73
2023/04/14 00:59:10;;;;;;;;;;;;;;;20.66;49.92;100383.50;4961875;28;2670;-73
2023/04/14 01:01:36;;;;;;;;;;;;;;;20.66;49.77;100374.88;4948792;28;2621;-73
2023/04/14 01:04:03;;;;;;;;;;;;;;;20.66;49.81;100383.50;4928159;28;2874;-73
2023/04/14 01:06:30;;;;;;;;;;;;;;;20.65;49.81;100379.16;4958746;28;2698;-73
2023/04/14 01:08:57;;;;;;;;;;;;;;;20.65;49.83;100384.94;4961712;28;2006;-73
2023/04/14 01:11:39;;;;;;;;;;;;;;;20.66;49.82;100380.63;4955568;28;2508;-73
2023/04/14 01:14:08;;;;;;;;;;;;;;;20.64;49.77;100384.19;4936455;28;2555;-72
2023/04/14 01:16:36;;;;;;;;;;;;;;;20.64;49.47;100374.81;4958278;28;2750;-72
2023/04/14 01:19:16;;;;;;;;;;;;;;;20.63;49.50;100373.34;4956193;28;2691;-72
2023/04/14 01:21:42;;;;;;;;;;;;;;;20.64;49.74;100381.31;4950775;28;2611;-73
2023/04/14 01:24:22;;;;;;;;;;;;;;;20.63;49.67;100382.69;4940030;28;2253;-73
2023/04/14 01:26:49;;;;;;;;;;;;;;;20.63;49.68;100384.84;4944410;28;2648;-73
2023/04/14 01:29:22;;;;;;;;;;;;;;;20.62;49.57;100389.88;4955882;28;2433;-73
2023/04/14 01:31:48;;;;;;;;;;;;;;;20.61;49.50;100387.63;4947177;28;2431;-72
2023/04/14 01:34:33;;;;;;;;;;;;;;;20.61;49.69;100384.75;4962027;28;2707;-73
2023/04/14 01:37:03;;;;;;;;;;;;;;;20.59;49.55;100385.44;4948536;28;2648;-73
2023/04/14 01:39:31;;;;;;;;;;;;;;;20.60;49.69;100374.66;4944703;28;2686;-73
2023/04/14 01:41:58;;;;;;;;;;;;;;;20.61;49.54;100382.63;4944992;28;2765;-73
2023/04/14 01:44:24;;;;;;;;;;;;;;;20.64;49.47;100380.59;4940113;28;2842;-73
2023/04/14 01:46:52;;;;;;;;;;;;;;;20.65;49.62;100384.94;4918951;28;2827;-73
2023/04/14 01:49:18;;;;;;;;;;;;;;;20.66;49.58;100389.25;4945844;28;2269;-73
2023/04/14 01:51:45;;;;;;;;;;;;;;;20.67;49.77;100394.38;4944612;28;2747;-73
2023/04/14 01:54:11;;;;;;;;;;;;;;;20.67;49.70;100385.00;4941678;28;2338;-73
2023/04/14 01:56:38;;;;;;;;;;;;;;;20.68;49.81;100380.72;4938445;28;2659;-72
2023/04/14 01:59:05;;;;;;;;;;;;;;;20.68;49.68;100386.47;4945304;28;2613;-72
2023/04/14 02:01:32;;;;;;;;;;;;;;;20.67;49.82;100379.97;4916436;28;2489;-72
2023/04/14 02:04:00;;;;;;;;;;;;;;;20.67;49.95;100379.97;4941941;28;2737;-73
2023/04/14 02:06:27;;;;;;;;;;;;;;;20.66;49.92;100378.53;4928252;28;2989;-73
2023/04/14 02:08:56;;;;;;;;;;;;;;;20.66;49.94;100386.38;4939707;28;2680;-73
2023/04/14 02:11:22;;;;;;;;;;;;;;;20.67;49.95;100387.88;4922369;28;2806;-72
2023/04/14 02:13:49;;;;;;;;;;;;;;;20.65;49.71;100382.78;4958662;28;2551;-73
2023/04/14 02:16:15;;;;;;;;;;;;;;;20.65;49.69;100382.03;4939474;28;2870;-73
2023/04/14 02:18:42;;;;;;;;;;;;;;;20.64;49.95;100389.94;4957371;28;2762;-73
2023/04/14 02:21:09;;;;;;;;;;;;;;;20.64;49.70;100386.34;4941198;28;2734;-72
2023/04/14 02:23:36;;;;;;;;;;;;;;;20.63;49.65;100382.69;4960820;28;2592;-73
2023/04/14 02:26:15;;;;;;;;;;;;;;;20.62;49.63;100378.34;4964206;28;2631;-72
2023/04/14 02:28:46;;;;;;;;;;;;;;;20.62;49.72;100378.34;4949783;28;2803;-73
2023/04/14 02:31:12;;;;;;;;;;;;;;;20.61;49.87;100382.63;4959884;28;2576;-73
2023/04/14 02:33:41;;;;;;;;;;;;;;;20.62;49.69;100392.00;4918125;28;2247;-73
2023/04/14 02:36:17;;;;;;;;;;;;;;;20.62;49.56;100389.13;4957929;28;2309;-73
2023/04/14 02:38:45;;;;;;;;;;;;;;;20.60;49.79;100389.06;4935751;28;2742;-73
2023/04/14 02:41:13;;;;;;;;;;;;;;;20.60;49.83;100391.94;4944386;28;2059;-73
2023/04/14 02:43:45;;;;;;;;;;;;;;;20.60;49.85;100391.94;4944855;28;2734;-73
2023/04/14 02:46:12;;;;;;;;;;;;;;;20.60;49.64;100394.81;4926711;28;2470;-73
2023/04/14 02:48:41;;;;;;;;;;;;;;;20.62;49.73;100395.63;4926738;28;2189;-73
2023/04/14 02:51:08;;;;;;;;;;;;;;;20.64;49.92;100392.09;4955390;28;2320;-73
2023/04/14 02:53:35;;;;;;;;;;;;;;;20.67;49.97;100402.25;4937361;28;2683;-73
2023/04/14 02:56:14;;;;;;;;;;;;;;;20.67;49.99;100396.50;4953400;28;2492;-73
2023/04/14 02:58:43;;;;;;;;;;;;;;;20.70;49.92;100392.31;4935245;28;2729;-73
2023/04/14 03:01:09;;;;;;;;;;;;;;;20.71;49.78;100393.78;4918378;28;2469;-72
2023/04/14 03:03:36;;;;;;;;;;;;;;;20.72;49.84;100395.25;4946489;28;2684;-73
2023/04/14 03:06:07;;;;;;;;;;;;;;;20.72;49.94;100395.25;4950199;28;2578;-72
2023/04/14 03:08:33;;;;;;;;;;;;;;;20.71;49.87;100390.91;4934680;28;2709;-73
2023/04/14 03:11:00;;;;;;;;;;;;;;;20.71;49.92;100394.53;4929734;28;3004;-73
2023/04/14 03:13:28;;;;;;;;;;;;;;;20.72;49.81;100398.13;4923701;28;2878;-72
2023/04/14 03:15:55;;;;;;;;;;;;;;;20.73;49.68;100398.88;4959507;28;2683;-72
2023/04/14 03:18:22;;;;;;;;;;;;;;;20.74;49.91;100406.13;4945646;28;2729;-72
2023/04/14 03:20:52;;;;;;;;;;;;;;;20.73;49.73;100405.38;4940684;28;2722;-72
2023/04/14 03:23:19;;;;;;;;;;;;;;;20.74;49.79;100403.97;4938431;28;2996;-72
2023/04/14 03:25:50;;;;;;;;;;;;;;;20.76;49.91;100398.28;4958191;28;2827;-72
2023/04/14 03:28:22;;;;;;;;;;;;;;;20.76;49.87;100391.81;4959349;28;2754;-73
2023/04/14 03:30:50;;;;;;;;;;;;;;;20.77;49.89;100396.88;4937835;28;2726;-72
2023/04/14 03:33:18;;;;;;;;;;;;;;;20.77;49.87;100385.38;4959053;28;2666;-73
2023/04/14 03:35:45;;;;;;;;;;;;;;;20.76;49.88;100381.03;4948035;28;2887;-73
2023/04/14 03:38:13;;;;;;;;;;;;;;;20.76;49.95;100386.78;4932573;28;2744;-73
2023/04/14 03:40:43;;;;;;;;;;;;;;;20.78;49.75;100378.22;4964253;28;2717;-73
2023/04/14 03:43:17;;;;;;;;;;;;;;;20.77;49.82;100373.13;4944957;28;2591;-73
2023/04/14 03:45:48;;;;;;;;;;;;;;;20.76;49.95;100372.41;4943895;28;2271;-73
2023/04/14 03:48:17;;;;;;;;;;;;;;;20.77;49.77;100379.63;4943851;28;2330;-73
2023/04/14 03:50:47;;;;;;;;;;;;;;;20.78;50.11;100381.09;4923262;28;2279;-73
2023/04/14 03:53:13;;;;;;;;;;;;;;;20.79;50.10;100379.69;4924781;28;3021;-73
2023/04/14 03:55:41;;;;;;;;;;;;;;;20.78;50.10;100381.09;4963462;28;3048;-74
2023/04/14 03:58:07;;;;;;;;;;;;;;;20.77;50.12;100376.72;4944551;28;2686;-74
2023/04/14 04:00:34;;;;;;;;;;;;;;;20.79;49.91;100379.69;4944200;28;2721;-74
2023/04/14 04:03:01;;;;;;;;;;;;;;;20.80;50.20;100369.66;4943510;28;2702;-74
2023/04/14 04:05:27;;;;;;;;;;;;;;;20.81;49.88;100379.78;4942352;28;2552;-75
2023/04/14 04:07:54;;;;;;;;;;;;;;;20.81;50.28;100379.03;4953936;28;2213;-73
2023/04/14 04:10:22;;;;;;;;;;;;;;;20.82;50.06;100377.63;4925012;28;2324;-73
2023/04/14 04:12:49;;;;;;;;;;;;;;;20.81;50.16;100370.41;4949909;28;2322;-73
2023/04/14 04:15:15;;;;;;;;;;;;;;;20.80;50.16;100363.91;4940379;28;2553;-73
2023/04/14 04:17:42;;;;;;;;;;;;;;;20.80;50.23;100381.19;4960281;28;2159;-73
2023/04/14 04:20:10;;;;;;;;;;;;;;;20.80;50.31;100384.06;4929057;28;2419;-72
2023/04/14 04:22:38;;;;;;;;;;;;;;;20.81;50.21;100394.16;4938907;28;2362;-72
2023/04/14 04:25:05;;;;;;;;;;;;;;;20.81;49.92;100382.66;4921338;28;2194;-73
2023/04/14 04:27:34;;;;;;;;;;;;;;;20.82;50.09;100394.88;4953390;28;2229;-72
2023/04/14 04:30:11;;;;;;;;;;;;;;;20.81;50.00;100388.41;4949611;28;2471;-72
2023/04/14 04:32:37;;;;;;;;;;;;;;;20.80;50.11;100386.94;4940002;28;2584;-73
2023/04/14 04:35:06;;;;;;;;;;;;;;;20.83;50.02;100388.47;4925812;28;2022;-73
2023/04/14 04:37:32;;;;;;;;;;;;;;;20.85;50.16;100393.59;4941489;28;2184;-73
2023/04/14 04:39:59;;;;;;;;;;;;;;;20.85;50.08;100399.34;4937846;28;2380;-73
2023/04/14 04:42:26;;;;;;;;;;;;;;;20.83;49.98;100391.34;4954319;28;2202;-73
2023/04/14 04:44:53;;;;;;;;;;;;;;;20.83;50.00;100396.38;4941690;28;2306;-73
2023/04/14 04:47:20;;;;;;;;;;;;;;;20.84;50.19;100392.81;4946467;28;2396;-75
2023/04/14 04:49:46;;;;;;;;;;;;;;;20.82;50.21;100387.00;4950452;28;2209;-74
2023/04/14 04:52:14;;;;;;;;;;;;;;;20.83;50.33;100391.34;4932673;28;2358;-73
2023/04/14 04:54:41;;;;;;;;;;;;;;;20.82;50.19;100389.91;4949572;28;2320;-74
2023/04/14 04:57:07;;;;;;;;;;;;;;;20.83;49.98;100391.34;4950524;28;2516;-74
2023/04/14 04:59:34;;;;;;;;;;;;;;;20.84;50.19;100398.56;4945912;28;2777;-74
2023/04/14 05:02:03;;;;;;;;;;;;;;;20.84;50.17;100394.97;4959380;28;2555;-74
2023/04/14 05:04:29;;;;;;;;;;;;;;;20.84;50.00;100404.34;4959761;28;2894;-76
2023/04/14 05:06:56;;;;;;;;;;;;;;;19.93;46.97;100399.38;4951098;28;2671;-73
2023/04/14 05:09:22;;;;;;;;;;;;;;;20.20;48.58;100400.41;4958580;28;2584;-73
2023/04/14 05:11:49;;;;;;;;;;;;;;;20.55;48.69;100401.75;4954326;28;2640;-70
2023/04/14 05:14:15;;;;;;;;;;;;;;;19.20;44.75;100397.00;4958753;28;2698;-70
2023/04/14 05:16:41;;;;;;;;;;;;;;;19.66;45.36;100400.38;4964648;28;3020;-70
2023/04/14 05:19:08;;;;;;;;;;;;;;;20.09;45.66;100388.53;4966221;28;2774;-71
2023/04/14 05:21:34;;;;;;;;;;;;;;;20.34;47.32;100397.34;4964384;28;3017;-70
2023/04/14 05:24:01;;;;;;;;;;;;;;;20.49;46.84;100399.41;4959213;28;2051;-70
2023/04/14 05:26:27;;;;;;;;;;;;;;;20.57;47.18;100399.00;4963886;28;2619;-71
2023/04/14 05:29:13;;;;;;;;;;;;;;;20.60;46.93;100403.44;4966911;28;3063;-71
2023/04/14 05:31:40;;;;;;;;;;;;;;;20.63;47.37;100404.97;4963787;28;2831;-70
2023/04/14 05:34:06;;;;;;;;;;;;;;;20.65;47.35;100405.06;4965670;28;1673;-70
2023/04/14 05:36:32;;;;;;;;;;;;;;;20.67;47.81;100405.13;4962354;28;2895;-70
2023/04/14 05:38:59;;;;;;;;;;;;;;;20.68;48.05;100400.84;4965041;28;1733;-70
2023/04/14 05:41:25;;;;;;;;;;;;;;;20.71;48.37;100408.19;4964232;28;2625;-70
2023/04/14 05:43:52;;;;;;;;;;;;;;;20.71;48.48;100403.16;4963257;28;2635;-70
2023/04/14 05:46:18;;;;;;;;;;;;;;;20.74;48.50;100406.13;4963697;28;2097;-70
2023/04/14 05:48:44;;;;;;;;;;;;;;;20.76;48.82;100397.56;4958238;28;2739;-70
2023/04/14 05:51:11;;;;;;;;;;;;;;;20.76;48.70;100406.91;4965942;28;1919;-70
2023/04/14 05:53:37;;;;;;;;;;;;;;;20.75;48.77;100405.44;4965873;28;2793;-70
2023/04/14 05:56:04;;;;;;;;;;;;;;;20.75;48.99;100402.56;4966442;28;1649;-71
2023/04/14 05:58:30;;;;;;;;;;;;;;;20.75;49.10;100410.47;4945448;28;2752;-70
2023/04/14 06:00:56;;;;;;;;;;;;;;;20.75;49.08;100399.69;4965004;28;2563;-70
2023/04/14 06:03:23;;;;;;;;;;;;;;;20.76;49.06;100404.03;4964480;28;2687;-70
2023/04/14 06:05:51;;;;;;;;;;;;;;;20.76;49.11;100409.81;4961024;28;2635;-70
2023/04/14 06:08:18;;;;;;;;;;;;;;;20.76;49.29;100397.56;4965694;28;2535;-70
2023/04/14 06:10:44;;;;;;;;;;;;;;;20.76;49.29;100398.28;4962378;28;2703;-70
2023/04/14 06:13:11;;;;;;;;;;;;;;;20.76;49.31;100406.91;4962139;28;2707;-69
2023/04/14 06:15:37;;;;;;;;;;;;;;;20.77;49.21;100402.63;4967045;28;1697;-70
2023/04/14 06:18:03;;;;;;;;;;;;;;;20.77;49.17;100408.38;4963712;28;2706;-70
2023/04/14 06:20:30;;;;;;;;;;;;;;;20.79;49.12;100416.38;4965380;28;1602;-70
2023/04/14 06:22:59;;;;;;;;;;;;;;;20.80;49.02;100407.09;4962473;28;2635;-69
2023/04/14 06:25:26;;;;;;;;;;;;;;;20.80;49.12;100412.84;4966704;28;1812;-69
2023/04/14 06:27:52;;;;;;;;;;;;;;;20.81;49.28;100411.41;4962738;28;2500;-69
2023/04/14 06:30:18;;;;;;;;;;;;;;;20.81;48.95;100408.53;4965971;28;2604;-70
2023/04/14 06:32:45;;;;;;;;;;;;;;;20.81;49.26;100417.19;4964676;28;2667;-69
2023/04/14 06:35:11;;;;;;;;;;;;;;;20.80;49.06;100412.84;4962173;28;2585;-69
2023/04/14 06:37:57;;;;;;;;;;;;;;;20.81;49.20;100422.94;4962764;28;2685;-69
2023/04/14 06:40:23;;;;;;;;;;;;;;;20.82;49.26;100417.91;4967004;28;1928;-70
2023/04/14 06:42:50;;;;;;;;;;;;;;;20.81;49.34;100411.41;4963457;28;2710;-70
2023/04/14 06:45:16;;;;;;;;;;;;;;;20.81;49.22;100416.44;4964815;28;1905;-70
2023/04/14 06:47:42;;;;;;;;;;;;;;;20.80;49.48;100412.84;4959535;28;2733;-70
2023/04/14 06:50:09;;;;;;;;;;;;;;;20.81;49.28;100410.69;4964712;28;2321;-70
2023/04/14 06:52:35;;;;;;;;;;;;;;;20.81;49.38;100417.19;4964021;28;2686;-70
2023/04/14 06:55:02;;;;;;;;;;;;;;;20.81;49.58;100422.94;4946064;28;2833;-70
2023/04/14 06:57:28;;;;;;;;;;;;;;;20.85;49.08;100423.09;4962942;28;2588;-68
2023/04/14 06:59:55;;;;;;;;;;;;;;;20.85;49.27;100414.47;4965846;28;1763;-69
2023/04/14 07:02:21;;;;;;;;;;;;;;;20.86;49.14;100432.47;4965734;28;2718;-68
2023/04/14 07:04:48;;;;;;;;;;;;;;;20.86;48.96;100432.47;4968487;28;2670;-69
2023/04/14 07:07:14;;;;;;;;;;;;;;;20.84;48.71;100438.88;4967896;28;2734;-69
2023/04/14 07:09:41;;;;;;;;;;;;;;;20.80;48.54;100429.34;4967754;28;1709;-69
2023/04/14 07:12:14;;;;;;;;;;;;;;;20.78;48.40;100423.53;4964868;28;2784;-68
2023/04/14 07:14:40;;;;;;;;;;;;;;;20.76;48.08;100426.34;4967870;28;2445;-68
2023/04/14 07:17:07;;;;;;;;;;;;;;;20.76;48.19;100424.19;4966318;28;2694;-68
2023/04/14 07:19:33;;;;;;;;;;;;;;;20.75;48.11;100419.09;4966496;28;2173;-68
2023/04/14 07:22:00;;;;;;;;;;;;;;;20.74;48.00;100424.09;4966666;28;3171;-68
2023/04/14 07:24:27;;;;;;;;;;;;;;;20.74;48.04;100426.25;4965692;28;2473;-68
2023/04/14 07:26:53;;;;;;;;;;;;;;;20.72;48.02;100424.03;4965011;28;2787;-68
2023/04/14 07:29:19;;;;;;;;;;;;;;;20.72;47.96;100426.91;4969467;28;1978;-68
2023/04/14 07:31:46;;;;;;;;;;;;;;;20.72;47.99;100418.28;4962747;28;2882;-68
2023/04/14 07:34:12;;;;;;;;;;;;;;;20.73;48.02;100425.53;4967796;28;2461;-68
2023/04/14 07:36:39;;;;;;;;;;;;;;;20.71;48.19;100426.16;4967522;28;2659;-68
2023/04/14 07:39:05;;;;;;;;;;;;;;;20.70;48.10;100424.69;4967986;28;2488;-69
2023/04/14 07:41:31;;;;;;;;;;;;;;;20.73;47.96;100424.75;4964191;28;2698;-69
2023/04/14 07:43:58;;;;;;;;;;;;;;;20.72;47.97;100432.66;4967521;28;2684;-69
2023/04/14 07:46:26;;;;;;;;;;;;;;;20.72;47.90;100429.78;4965284;28;2965;-68
2023/04/14 07:48:52;;;;;;;;;;;;;;;20.74;47.67;100429.88;4958754;28;3099;-68
2023/04/14 07:51:19;;;;;;;;;;;;;;;20.75;47.93;100437.09;4967591;28;2854;-69
2023/04/14 07:53:45;;;;;;;;;;;;;;;20.80;47.98;100450.25;4961061;28;2778;-68
2023/04/14 07:56:12;;;;;;;;;;;;;;;20.82;48.34;100444.56;4967362;28;2778;-69
2023/04/14 07:58:38;;;;;;;;;;;;;;;20.83;48.37;100448.91;4968193;28;2672;-69
2023/04/14 08:01:05;;;;;;;;;;;;;;;20.84;48.43;100449.66;4963785;28;2730;-68
2023/04/14 08:03:31;;;;;;;;;;;;;;;20.83;48.30;100451.78;4967479;28;2378;-67
2023/04/14 08:05:58;;;;;;;;;;;;;;;20.84;48.45;100447.50;4965517;28;2749;-68
2023/04/14 08:08:25;;;;;;;;;;;;;;;20.83;48.59;100443.16;4962169;28;2626;-68
2023/04/14 08:10:51;;;;;;;;;;;;;;;20.84;48.64;100441.75;4966107;28;2802;-68
2023/04/14 08:13:17;;;;;;;;;;;;;;;20.84;48.81;100441.75;4960244;28;2766;-69
2023/04/14 08:15:44;;;;;;;;;;;;;;;20.85;48.92;100434.59;4962228;28;2683;-69
2023/04/14 08:18:10;;;;;;;;;;;;;;;20.84;48.66;100441.00;4966122;28;2734;-69
2023/04/14 08:20:37;;;;;;;;;;;;;;;20.86;48.94;100441.09;4966930;28;2648;-70
2023/04/14 08:23:03;;;;;;;;;;;;;;;20.85;48.90;100446.13;4965129;28;2638;-69
2023/04/14 08:25:30;;;;;;;;;;;;;;;20.86;48.83;100441.81;4964595;28;2793;-69
2023/04/14 08:27:56;;;;;;;;;;;;;;;20.89;48.88;100451.28;4968157;28;2464;-68
2023/04/14 08:30:22;;;;;;;;;;;;;;;20.90;48.72;100450.63;4964417;28;2723;-68
2023/04/14 08:32:49;;;;;;;;;;;;;;;20.89;48.89;100446.28;4966695;28;2257;-68
2023/04/14 08:35:16;;;;;;;;;;;;;;;20.92;49.03;100439.19;4963932;28;2775;-68
2023/04/14 08:38:01;;;;;;;;;;;;;;;20.50;48.09;100441.88;4965550;28;2480;-62
2023/04/14 08:40:30;;;;;;;;;;;;;;;19.25;48.15;100451.03;4962103;28;2933;-65
2023/04/14 08:42:56;;;;;;;;;;;;;;;19.57;47.90;100451.00;4964929;28;2264;-67
2023/04/14 08:45:22;;;;;;;;;;;;;;;19.94;47.28;100441.06;4964538;28;2624;-68
2023/04/14 08:47:49;;;;;;;;;;;;;;;20.13;46.83;100431.06;4967539;28;1829;-67
2023/04/14 08:50:17;;;;;;;;;;;;;;;20.20;46.90;100432.81;4965638;28;2773;-67
2023/04/14 08:52:43;;;;;;;;;;;;;;;20.22;46.80;100440.75;4962521;28;2364;-68
2023/04/14 08:55:10;;;;;;;;;;;;;;;20.25;46.82;100427.94;4965218;28;2738;-65
2023/04/14 08:57:36;;;;;;;;;;;;;;;20.25;46.84;100430.81;4967077;28;1701;-67
2023/04/14 09:00:03;;;;;;;;;;;;;;;20.27;46.90;100425.13;4953989;28;2341;-67
2023/04/14 09:02:31;;;;;;;;;;;;;;;20.27;46.91;100436.63;4967949;28;1711;-67
2023/04/14 09:04:57;;;;;;;;;;;;;;;20.25;46.94;100430.81;4966218;28;2367;-67
2023/04/14 09:07:25;;;;;;;;;;;;;;;20.25;46.95;100442.31;4967475;28;1781;-64
2023/04/14 09:09:51;;;;;;;;;;;;;;;20.24;47.04;100440.84;4955206;28;2656;-68
2023/04/14 09:12:18;;;;;;;;;;;;;;;20.41;46.98;100440.09;4964038;28;2584;-68
2023/04/14 09:14:47;;;;;;;;;;;;;;;20.56;47.37;100443.50;4965962;28;2753;-69
2023/04/14 09:17:14;;;;;;;;;;;;;;;20.64;47.45;100433.09;4965739;28;2886;-69
2023/04/14 09:19:40;;;;;;;;;;;;;;;20.71;47.83;100431.19;4962761;28;2790;-69
2023/04/14 09:22:27;;;;;;;;;;;;;;;20.72;47.99;100438.41;4967846;28;1634;-69
2023/04/14 09:24:53;;;;;;;;;;;;;;;20.74;48.22;100440.63;4965749;28;2786;-69
2023/04/14 09:27:19;;;;;;;;;;;;;;;20.74;48.04;100429.88;4961164;28;2118;-69
2023/04/14 09:29:46;;;;;;;;;;;;;;;20.75;48.31;100437.09;4962986;28;2823;-69
2023/04/14 09:32:12;;;;;;;;;;;;;;;20.75;48.64;100431.31;4961032;28;2804;-69
2023/04/14 09:34:51;;;;;;;;;;;;;;;20.75;48.61;100425.56;4944455;28;1600;-69
2023/04/14 09:37:21;;;;;;;;;;;;;;;20.74;48.34;100424.09;4961628;28;2687;-69
2023/04/14 09:39:51;;;;;;;;;;;;;;;20.76;48.69;100420.56;4961271;28;2461;-70
2023/04/14 09:42:17;;;;;;;;;;;;;;;20.76;48.44;100421.31;4946819;28;2812;-69
2023/04/14 09:44:50;;;;;;;;;;;;;;;20.74;48.80;100415.47;4963259;28;2627;-69
2023/04/14 09:47:17;;;;;;;;;;;;;;;20.77;49.13;100414.16;4967335;28;3164;-70
2023/04/14 09:49:54;;;;;;;;;;;;;;;20.76;49.11;100415.56;4959552;28;2780;-69
2023/04/14 09:52:20;;;;;;;;;;;;;;;20.76;49.24;100423.47;4963232;28;2784;-69
2023/04/14 09:54:47;;;;;;;;;;;;;;;20.76;48.81;100421.31;4949585;28;3326;-69
2023/04/14 09:57:23;;;;;;;;;;;;;;;20.79;48.97;100422.84;4949503;28;1650;-70
2023/04/14 09:59:49;;;;;;;;;;;;;;;20.82;48.86;100415.78;4971337;28;3016;-72
2023/04/14 10:02:15;;;;;;;;;;;;;;;20.83;49.12;100422.28;4963872;28;2734;-70
2023/04/14 10:04:42;;;;;;;;;;;;;;;20.83;48.96;100425.88;4963397;28;2710;-68
2023/04/14 10:07:11;;;;;;;;;;;;;;;20.83;49.57;100416.53;4964517;28;2715;-69
2023/04/14 10:09:37;;;;;;;;;;;;;;;20.84;49.58;100421.59;4960108;28;2724;-70
2023/04/14 10:12:11;;;;;;;;;;;;;;;20.84;50.17;100424.47;4962978;28;2624;-69
2023/04/14 10:14:40;;;;;;;;;;;;;;;20.85;50.20;100416.59;4957470;28;2816;-69
2023/04/14 10:17:07;;;;;;;;;;;;;;;20.84;50.19;100415.84;4965613;28;2468;-69
2023/04/14 10:19:34;;;;;;;;;;;;;;;20.83;50.62;100413.66;4965820;28;2356;-69
2023/04/14 10:22:00;;;;;;;;;;;;;;;20.83;50.46;100420.13;4967688;28;1697;-71
2023/04/14 10:24:27;;;;;;;;;;;;;;;20.83;50.52;100414.38;4966419;28;1637;-69
2023/04/14 10:26:53;;;;;;;;;;;;;;;20.83;50.05;100417.25;4965186;28;1954;-69
2023/04/14 10:29:20;;;;;;;;;;;;;;;20.83;50.59;100408.63;4962469;28;1675;-69
2023/04/14 10:31:53;;;;;;;;;;;;;;;20.84;50.49;100404.34;4965281;28;2297;-70
2023/04/14 10:34:20;;;;;;;;;;;;;;;20.86;50.65;100407.28;4965503;28;1751;-70
2023/04/14 10:36:47;;;;;;;;;;;;;;;20.87;51.06;100408.78;4966097;28;1711;-69
2023/04/14 10:39:19;;;;;;;;;;;;;;;20.89;50.80;100410.97;4965256;28;1842;-69
2023/04/14 10:41:51;;;;;;;;;;;;;;;20.90;51.27;100406.72;4964267;28;1720;-70
2023/04/14 10:44:21;;;;;;;;;;;;;;;20.89;51.16;100402.34;4958479;28;2870;-69
2023/04/14 10:46:47;;;;;;;;;;;;;;;20.92;51.52;100398.88;4963521;28;2710;-69
2023/04/14 10:49:14;;;;;;;;;;;;;;;20.95;50.93;100396.09;4960476;28;2774;-69
2023/04/14 10:51:40;;;;;;;;;;;;;;;20.92;51.42;100398.88;4965448;28;2182;-69
2023/04/14 10:54:17;;;;;;;;;;;;;;;20.94;51.18;100392.47;4965017;28;2330;-69
2023/04/14 10:57:02;;;;;;;;;;;;;;;20.94;51.28;100395.34;4963803;28;1715;-69
2023/04/14 10:59:29;;;;;;;;;;;;;;;20.94;51.15;100389.59;4961765;28;2822;-69
2023/04/14 11:01:55;;;;;;;;;;;;;;;20.94;51.56;100395.34;4960229;28;2474;-71
2023/04/14 11:04:22;;;;;;;;;;;;;;;20.95;51.43;100390.34;4964771;28;1636;-71
2023/04/14 11:06:49;;;;;;;;;;;;;;;20.95;51.55;100384.56;4962336;28;2647;-70
2023/04/14 11:09:22;;;;;;;;;;;;;;;20.95;51.32;100387.44;4943493;28;2589;-71
2023/04/14 11:11:49;;;;;;;;;;;;;;;20.96;51.17;100380.28;4960745;28;2381;-71
2023/04/14 11:14:15;;;;;;;;;;;;;;;20.98;51.15;100377.47;4964655;28;2649;-70
2023/04/14 11:16:43;;;;;;;;;;;;;;;20.97;50.91;100376.03;4958609;28;2603;-69
2023/04/14 11:19:27;;;;;;;;;;;;;;;21.01;50.82;100382.66;4961398;28;3017;-70
2023/04/14 11:21:54;;;;;;;;;;;;;;;21.03;51.02;100374.09;4963317;28;2647;-70
2023/04/14 11:24:20;;;;;;;;;;;;;;;21.02;51.29;100383.38;4962362;28;2534;-70
2023/04/14 11:26:47;;;;;;;;;;;;;;;20.99;51.38;100373.22;4966304;28;1730;-70
2023/04/14 11:29:13;;;;;;;;;;;;;;;20.99;51.63;100370.34;4964436;28;2605;-70
2023/04/14 11:31:39;;;;;;;;;;;;;;;20.99;51.49;100373.22;4964253;28;2600;-70
2023/04/14 11:34:06;;;;;;;;;;;;;;;20.98;51.28;100378.25;4963586;28;2608;-70
2023/04/14 11:36:35;;;;;;;;;;;;;;;20.98;51.25;100365.97;4962904;28;2651;-70
2023/04/14 11:39:03;;;;;;;;;;;;;;;20.99;51.48;100373.22;4962916;28;2778;-69
2023/04/14 11:41:29;;;;;;;;;;;;;;;21.00;51.40;100374.69;4961162;28;2595;-70
2023/04/14 11:43:55;;;;;;;;;;;;;;;20.99;51.56;100370.34;4943167;28;2796;-70
2023/04/14 11:46:22;;;;;;;;;;;;;;;20.98;51.45;100372.47;4963206;28;1861;-70
2023/04/14 11:48:52;;;;;;;;;;;;;;;20.82;51.14;100375.50;4957105;28;2696;-76
2023/04/14 11:51:19;;;;;;;;;;;;;;;20.49;50.74;100376.38;4967265;28;3044;-71
2023/04/14 11:53:45;;;;;;;;;;;;;;;20.70;51.16;100372.16;4964496;28;2677;-72
2023/04/14 11:56:13;;;;;;;;;;;;;;;20.74;51.33;100380.94;4964459;28;2720;-70
2023/04/14 11:58:39;;;;;;;;;;;;;;;20.29;50.78;100377.09;4963173;28;3200;-70
2023/04/14 12:01:06;;;;;;;;;;;;;;;20.56;50.74;100380.22;4957772;28;2584;-71
2023/04/14 12:03:33;;;;;;;;;;;;;;;20.71;50.54;100379.41;4958962;28;2850;-71
2023/04/14 12:06:00;;;;;;;;;;;;;;;20.76;50.66;100378.16;4961611;28;3225;-71
2023/04/14 12:08:30;;;;;;;;;;;;;;;20.82;51.51;100381.25;4958957;28;3495;-74
2023/04/14 12:10:57;;;;;;;;;;;;;;;21.16;51.21;100375.25;4955193;28;3055;-75
2023/04/14 12:13:23;;;;;;;;;;;;;;;21.30;50.71;100375.00;4962525;28;2702;-76
2023/04/14 12:15:50;;;;;;;;;;;;;;;21.39;50.40;100378.91;4966573;28;2748;-74
2023/04/14 12:18:16;;;;;;;;;;;;;;;21.44;50.29;100369.03;4962807;28;2753;-76
2023/04/14 12:20:46;;;;;;;;;;;;;;;21.46;50.32;100360.47;4965410;28;2441;-76
2023/04/14 12:23:12;;;;;;;;;;;;;;;21.48;50.13;100358.38;4967856;28;2662;-76
2023/04/14 12:25:38;;;;;;;;;;;;;;;21.50;49.97;100354.84;4966041;28;2749;-73
2023/04/14 12:28:05;;;;;;;;;;;;;;;21.51;49.99;100356.34;4966717;28;2887;-75
2023/04/14 12:30:32;;;;;;;;;;;;;;;21.52;50.07;100360.69;4963635;28;2813;-74
2023/04/14 12:32:58;;;;;;;;;;;;;;;21.52;49.95;100354.91;4966199;28;2733;-73
2023/04/14 12:35:25;;;;;;;;;;;;;;;21.55;49.43;100356.44;4967097;28;2821;-73
2023/04/14 12:37:51;;;;;;;;;;;;;;;21.39;49.80;100356.59;4961022;28;2755;-62
2023/04/14 12:40:17;;;;;;;;;;;;;;;21.22;50.38;100343.81;4963285;28;2722;-64
2023/04/14 12:42:45;;;;;;;;;;;;;;;21.14;50.44;100349.25;4947065;28;2760;-62
2023/04/14 12:45:11;;;;;;;;;;;;;;;21.09;50.45;100336.13;4964187;28;2874;-62
2023/04/14 12:47:38;;;;;;;;;;;;;;;21.04;50.54;100343.16;4964573;28;2989;-64
2023/04/14 12:50:24;;;;;;;;;;;;;;;21.03;50.76;100339.56;4967668;28;2801;-64